Terminal Aerodrome Forecast
Issued by NWS Hastings, NE

Current Version | Previous Version | Text Only | Print | Product List | Glossary On
Versions: 1 2 3 4 5 6 7 8 9 10 11 12 13 14 15 16 17 18 19 20 21 22 23 24 25 26 27 28 29 30 31 32 33 34 35 36 37 38 39 40 41 42 43
000
FTUS43 KGID 102331
TAFGRI
TAF
KGRI 102331Z 1100/1124 16013KT P6SM SCT150
     FM110800 16009KT 5SM -DZ BR SCT020 SCT150 WS015/21040KT
     FM111300 16007KT P6SM SCT150=

USA.gov is the U.S. government's official web portal to all federal, state and local government web resources and services.